createdAt,value
2022-11-19T00:01:24.533Z,1.40
2022-11-19T00:03:53.158Z,1.40
2022-11-19T00:06:25.672Z,1.40
2022-11-19T00:08:52.582Z,1.30
2022-11-19T00:11:42.113Z,1.40
2022-11-19T00:14:12.399Z,1.40
2022-11-19T00:16:39.813Z,1.40
2022-11-19T00:19:07.002Z,1.40
2022-11-19T00:21:33.906Z,1.40
2022-11-19T00:24:00.848Z,1.30
2022-11-19T00:26:27.776Z,1.30
2022-11-19T00:28:55.495Z,1.30
2022-11-19T00:31:22.979Z,1.30
2022-11-19T00:33:54.375Z,1.30
2022-11-19T00:36:21.740Z,1.30
2022-11-19T00:38:48.631Z,1.30
2022-11-19T00:41:15.460Z,1.30
2022-11-19T00:43:48.905Z,1.30
2022-11-19T00:46:30.604Z,1.30
2022-11-19T00:48:59.109Z,1.30
2022-11-19T00:51:29.432Z,1.20
2022-11-19T00:53:56.491Z,1.20
2022-11-19T00:56:25.795Z,1.20
2022-11-19T00:58:53.495Z,1.30
2022-11-19T01:01:23.355Z,1.30
2022-11-19T01:03:50.614Z,1.20
2022-11-19T01:06:19.801Z,1.20
2022-11-19T01:08:50.753Z,1.20
2022-11-19T01:11:29.199Z,1.20
2022-11-19T01:13:56.492Z,1.20
2022-11-19T01:16:26.248Z,1.20
2022-11-19T01:18:53.847Z,1.20
2022-11-19T01:21:22.990Z,1.20
2022-11-19T01:23:49.996Z,1.20
2022-11-19T01:26:17.562Z,1.20
2022-11-19T01:28:45.209Z,1.20
2022-11-19T01:31:17.555Z,1.20
2022-11-19T01:33:45.041Z,1.20
2022-11-19T01:36:15.166Z,1.20
2022-11-19T01:38:42.715Z,1.30
2022-11-19T01:41:10.458Z,1.30
2022-11-19T01:43:43.113Z,1.30
2022-11-19T01:46:12.009Z,1.20
2022-11-19T01:48:57.722Z,1.30
2022-11-19T01:51:30.285Z,1.30
2022-11-19T01:54:00.357Z,1.30
2022-11-19T01:56:29.475Z,1.30
2022-11-19T01:59:02.644Z,1.20
2022-11-19T02:01:31.187Z,1.20
2022-11-19T02:04:03.591Z,1.20
2022-11-19T02:06:32.296Z,1.20
2022-11-19T02:08:59.222Z,1.20
2022-11-19T02:11:26.059Z,1.20
2022-11-19T02:14:26.009Z,1.20
2022-11-19T02:17:30.432Z,1.20
2022-11-19T02:20:00.351Z,1.20
2022-11-19T02:22:39.089Z,1.20
2022-11-19T02:25:18.328Z,1.20
2022-11-19T02:28:00.211Z,1.20
2022-11-19T02:30:33.035Z,1.20
2022-11-19T02:33:16.855Z,1.20
2022-11-19T02:36:09.709Z,1.20
2022-11-19T02:38:51.583Z,1.20
2022-11-19T02:41:35.020Z,1.20
2022-11-19T02:44:43.614Z,1.20
2022-11-19T02:47:13.436Z,1.20
2022-11-19T02:49:44.669Z,1.20
2022-11-19T02:52:16.201Z,1.10
2022-11-19T02:54:43.165Z,1.10
2022-11-19T02:57:12.279Z,1.20
2022-11-19T03:00:23.699Z,1.10
2022-11-19T03:03:16.761Z,1.10
2022-11-19T03:05:51.726Z,1.10
2022-11-19T03:08:19.410Z,1.10
2022-11-19T03:10:58.418Z,1.10
2022-11-19T03:13:49.549Z,1.10
2022-11-19T03:16:42.664Z,1.10
2022-11-19T03:19:36.587Z,1.00
2022-11-19T03:22:18.505Z,1.10
2022-11-19T03:25:08.651Z,1.10
2022-11-19T03:27:52.729Z,1.10
2022-11-19T03:30:20.274Z,1.10
2022-11-19T03:32:58.471Z,1.10
2022-11-19T03:35:29.755Z,1.00
2022-11-19T03:38:01.275Z,1.00
2022-11-19T03:40:30.748Z,1.00
2022-11-19T03:42:59.645Z,1.00
2022-11-19T03:45:29.875Z,1.00
2022-11-19T03:47:59.933Z,1.00
2022-11-19T03:50:32.884Z,1.00
2022-11-19T03:53:04.155Z,1.00
2022-11-19T03:55:48.814Z,1.00
2022-11-19T03:58:15.806Z,0.90
2022-11-19T04:00:42.762Z,1.00
2022-11-19T04:03:09.707Z,1.00
2022-11-19T04:05:36.538Z,0.90
2022-11-19T04:08:03.547Z,1.00
2022-11-19T04:10:30.384Z,0.90
2022-11-19T04:12:57.225Z,0.90
2022-11-19T04:15:24.199Z,0.90
2022-11-19T04:17:51.040Z,0.90
2022-11-19T04:20:17.955Z,0.90
2022-11-19T04:22:44.986Z,0.90
2022-11-19T04:25:11.843Z,1.00
2022-11-19T04:27:38.726Z,0.90
2022-11-19T04:30:06.110Z,0.90
2022-11-19T04:32:32.969Z,0.90
2022-11-19T04:34:59.776Z,0.90
2022-11-19T04:37:26.636Z,0.90
2022-11-19T04:39:53.463Z,0.90
2022-11-19T04:42:20.346Z,0.90
2022-11-19T04:44:47.227Z,0.80
2022-11-19T04:47:14.121Z,0.80
2022-11-19T04:49:41.022Z,0.80
2022-11-19T04:52:07.964Z,0.80
2022-11-19T04:54:34.806Z,0.90
2022-11-19T04:57:01.702Z,0.80
2022-11-19T04:59:28.520Z,0.80
2022-11-19T05:01:55.447Z,0.80
2022-11-19T05:04:22.519Z,0.80
2022-11-19T05:06:49.392Z,0.80
2022-11-19T05:09:16.421Z,0.80
2022-11-19T05:11:43.422Z,0.80
2022-11-19T05:14:10.385Z,0.70
2022-11-19T05:16:37.213Z,0.70
2022-11-19T05:19:04.080Z,0.80
2022-11-19T05:21:30.956Z,0.80
2022-11-19T05:23:57.860Z,0.80
2022-11-19T05:26:24.786Z,0.80
2022-11-19T05:28:51.585Z,0.80
2022-11-19T05:31:18.499Z,0.80
2022-11-19T05:33:45.354Z,0.80
2022-11-19T05:36:12.240Z,0.80
2022-11-19T05:38:39.178Z,0.80
2022-11-19T05:41:06.129Z,0.80
2022-11-19T05:43:32.971Z,0.80
2022-11-19T05:46:01.604Z,0.80
2022-11-19T05:48:29.138Z,0.80
2022-11-19T05:50:56.208Z,0.70
2022-11-19T05:53:23.075Z,0.80
2022-11-19T05:55:49.961Z,0.70
2022-11-19T05:58:16.831Z,0.70
2022-11-19T06:00:43.638Z,0.70
2022-11-19T06:03:11.166Z,0.70
2022-11-19T06:05:40.459Z,0.70
2022-11-19T06:08:07.567Z,0.70
2022-11-19T06:10:34.506Z,0.70
2022-11-19T06:13:01.439Z,0.70
2022-11-19T06:15:28.277Z,0.70
2022-11-19T06:17:56.983Z,0.70
2022-11-19T06:20:23.947Z,0.60
2022-11-19T06:22:51.836Z,0.60
2022-11-19T06:25:20.608Z,0.60
2022-11-19T06:27:47.587Z,0.70
2022-11-19T06:30:16.125Z,0.70
2022-11-19T06:32:43.792Z,0.70
2022-11-19T06:35:10.703Z,0.70
2022-11-19T06:37:37.619Z,0.60
2022-11-19T06:40:04.887Z,0.60
2022-11-19T06:42:37.502Z,0.60
2022-11-19T06:45:11.037Z,0.60
2022-11-19T06:47:39.852Z,0.60
2022-11-19T06:50:09.404Z,0.60
2022-11-19T06:52:36.565Z,0.60
2022-11-19T06:55:03.522Z,0.60
2022-11-19T06:57:30.464Z,0.60
2022-11-19T06:59:57.317Z,0.60
2022-11-19T07:02:24.155Z,0.50
2022-11-19T07:04:51.012Z,0.60
2022-11-19T07:07:17.939Z,0.50
2022-11-19T07:09:44.888Z,0.50
2022-11-19T07:12:11.726Z,0.50
2022-11-19T07:14:38.582Z,0.50
2022-11-19T07:17:06.214Z,0.50
2022-11-19T07:19:33.121Z,0.50
2022-11-19T07:22:00.149Z,0.50
2022-11-19T07:24:27.034Z,0.50
2022-11-19T07:26:55.076Z,0.50
2022-11-19T07:29:22.374Z,0.50
2022-11-19T07:31:50.742Z,0.50
2022-11-19T07:34:18.042Z,0.50
2022-11-19T07:36:45.660Z,0.50
2022-11-19T07:39:16.258Z,0.50
2022-11-19T07:42:02.145Z,0.50
2022-11-19T07:44:29.057Z,0.50
2022-11-19T07:46:55.984Z,0.50
2022-11-19T07:49:23.187Z,0.50
2022-11-19T07:51:50.213Z,0.50
2022-11-19T07:54:17.136Z,0.50
2022-11-19T07:56:44.002Z,0.50
2022-11-19T07:59:11.271Z,0.50
2022-11-19T08:01:38.551Z,0.50
2022-11-19T08:04:05.644Z,0.50
2022-11-19T08:06:35.750Z,0.50
2022-11-19T08:09:04.441Z,0.50
2022-11-19T08:11:31.675Z,0.50
2022-11-19T08:14:02.613Z,0.50
2022-11-19T08:16:48.846Z,0.50
2022-11-19T08:19:17.300Z,0.50
2022-11-19T08:21:46.275Z,0.60
2022-11-19T08:24:14.122Z,0.60
2022-11-19T08:26:41.933Z,0.60
2022-11-19T08:29:14.735Z,0.60
2022-11-19T08:31:45.247Z,0.60
2022-11-19T08:34:12.341Z,0.60
2022-11-19T08:36:39.708Z,0.70
2022-11-19T08:39:06.922Z,0.70
2022-11-19T08:41:52.656Z,0.60
2022-11-19T08:44:19.947Z,0.60
2022-11-19T08:46:47.014Z,0.60
2022-11-19T08:49:14.381Z,0.50
2022-11-19T08:51:41.284Z,0.60
2022-11-19T08:54:08.426Z,0.50
2022-11-19T08:56:35.429Z,0.50
2022-11-19T08:59:03.228Z,0.50
2022-11-19T09:01:30.948Z,0.60
2022-11-19T09:03:58.068Z,0.60
2022-11-19T09:06:24.987Z,0.60
2022-11-19T09:08:52.078Z,0.60
2022-11-19T09:11:20.551Z,0.60
2022-11-19T09:13:47.511Z,0.70
2022-11-19T09:16:14.388Z,0.70
2022-11-19T09:18:42.347Z,0.70
2022-11-19T09:21:11.284Z,0.70
2022-11-19T09:23:38.269Z,0.70
2022-11-19T09:26:08.536Z,0.70
2022-11-19T09:28:36.108Z,0.70
2022-11-19T09:31:02.942Z,0.70
2022-11-19T09:33:32.139Z,0.70
2022-11-19T09:35:58.972Z,0.70
2022-11-19T09:38:26.208Z,0.70
2022-11-19T09:41:01.906Z,0.60
2022-11-19T09:43:55.768Z,0.60
2022-11-19T09:46:37.712Z,0.50
2022-11-19T09:49:14.946Z,0.50
2022-11-19T09:51:53.087Z,0.50
2022-11-19T09:54:22.842Z,0.50
2022-11-19T09:56:54.211Z,0.50
2022-11-19T09:59:28.352Z,0.50
2022-11-19T10:01:55.591Z,0.50
2022-11-19T10:04:26.056Z,0.50
2022-11-19T10:07:11.716Z,0.50
2022-11-19T10:09:53.772Z,0.50
2022-11-19T10:12:35.034Z,0.50
2022-11-19T10:15:10.544Z,0.50
2022-11-19T10:18:03.399Z,0.50
2022-11-19T10:20:30.520Z,0.50
2022-11-19T10:23:08.675Z,0.50
2022-11-19T10:25:42.341Z,0.50
2022-11-19T10:28:25.283Z,0.50
2022-11-19T10:30:55.924Z,0.60
2022-11-19T10:33:36.496Z,0.60
2022-11-19T10:36:17.526Z,0.70
2022-11-19T10:39:02.959Z,0.70
2022-11-19T10:41:45.597Z,0.70
2022-11-19T10:44:35.147Z,0.70
2022-11-19T10:47:03.720Z,0.80
2022-11-19T10:49:32.578Z,0.80
2022-11-19T10:51:59.478Z,0.80
2022-11-19T10:54:28.714Z,0.90
2022-11-19T10:56:56.798Z,0.80
2022-11-19T10:59:27.269Z,0.90
2022-11-19T11:01:56.508Z,0.80
2022-11-19T11:04:26.138Z,0.80
2022-11-19T11:06:59.744Z,0.90
2022-11-19T11:09:32.456Z,0.90
2022-11-19T11:12:22.730Z,1.00
2022-11-19T11:14:52.434Z,1.00
2022-11-19T11:17:21.363Z,1.00
2022-11-19T11:20:04.517Z,1.00
2022-11-19T11:22:32.320Z,1.10
2022-11-19T11:25:05.850Z,1.10
2022-11-19T11:27:35.791Z,1.10
2022-11-19T11:30:11.828Z,1.10
2022-11-19T11:32:40.417Z,1.10
2022-11-19T11:35:36.025Z,1.00
2022-11-19T11:38:03.683Z,1.00
2022-11-19T11:40:31.256Z,0.90
2022-11-19T11:42:58.627Z,0.90
2022-11-19T11:45:32.772Z,0.90
2022-11-19T11:48:07.346Z,0.90
2022-11-19T11:50:37.000Z,0.80
2022-11-19T11:53:08.982Z,0.80
2022-11-19T11:55:36.210Z,0.70
2022-11-19T11:58:05.489Z,0.80
2022-11-19T12:00:46.059Z,0.80
2022-11-19T12:03:14.004Z,0.70
2022-11-19T12:05:40.782Z,0.70
2022-11-19T12:08:26.864Z,0.60
2022-11-19T12:11:01.570Z,0.50
2022-11-19T12:13:47.254Z,0.60
2022-11-19T12:16:33.017Z,0.60
2022-11-19T12:19:08.201Z,0.50
2022-11-19T12:21:51.450Z,0.50
2022-11-19T12:24:35.899Z,0.50
2022-11-19T12:27:21.926Z,0.40
2022-11-19T12:30:05.241Z,0.40
2022-11-19T12:32:43.772Z,0.40
2022-11-19T12:35:23.839Z,0.40
2022-11-19T12:38:25.743Z,0.30
2022-11-19T12:41:23.102Z,0.30
2022-11-19T12:44:01.979Z,0.30
2022-11-19T12:46:56.212Z,0.20
2022-11-19T12:49:51.535Z,0.20
2022-11-19T12:52:27.002Z,0.20
2022-11-19T12:55:12.822Z,0.20
2022-11-19T12:57:39.707Z,0.10
2022-11-19T13:00:12.854Z,0.10
2022-11-19T13:02:49.088Z,0.10
2022-11-19T13:05:22.476Z,0.10
2022-11-19T13:08:13.363Z,0.00
2022-11-19T13:10:45.402Z,-0.10
2022-11-19T13:13:16.139Z,-0.10
2022-11-19T13:15:53.353Z,-0.20
2022-11-19T13:18:21.835Z,-0.20
2022-11-19T13:20:51.459Z,-0.20
2022-11-19T13:23:39.037Z,-0.20
2022-11-19T13:26:08.836Z,-0.20
2022-11-19T13:29:12.529Z,-0.20
2022-11-19T13:31:48.650Z,-0.20
2022-11-19T13:34:37.296Z,-0.20
2022-11-19T13:37:11.322Z,-0.20
2022-11-19T13:40:07.153Z,-0.20
2022-11-19T13:43:17.197Z,-0.20
2022-11-19T13:45:42.518Z,-0.30
2022-11-19T13:48:28.377Z,-0.30
2022-11-19T13:50:59.069Z,-0.30
2022-11-19T13:53:47.896Z,-0.40
2022-11-19T13:56:17.304Z,-0.40
2022-11-19T13:58:53.072Z,-0.40
2022-11-19T14:01:52.534Z,-0.40
2022-11-19T14:04:37.749Z,-0.50
2022-11-19T14:07:28.082Z,-0.50
2022-11-19T14:10:00.660Z,-0.50
2022-11-19T14:12:42.612Z,-0.50
2022-11-19T14:15:34.088Z,-0.50
2022-11-19T14:18:38.250Z,-0.50
2022-11-19T14:21:42.470Z,-0.50
2022-11-19T14:24:46.022Z,-0.60
2022-11-19T14:27:17.209Z,-0.60
2022-11-19T14:29:44.153Z,-0.60
2022-11-19T14:32:11.160Z,-0.60
2022-11-19T14:35:02.969Z,-0.60
2022-11-19T14:37:43.098Z,-0.70
2022-11-19T14:40:12.910Z,-0.70
2022-11-19T14:43:18.551Z,-0.70
2022-11-19T14:46:09.030Z,-0.80
2022-11-19T14:48:38.839Z,-0.90
2022-11-19T14:51:06.322Z,-0.90
2022-11-19T14:53:36.613Z,-0.90
2022-11-19T14:56:11.895Z,-0.90
2022-11-19T14:58:39.634Z,-1.00
2022-11-19T15:01:10.956Z,-1.00
2022-11-19T15:03:38.237Z,-1.10
2022-11-19T15:06:07.915Z,-1.10
2022-11-19T15:08:50.302Z,-1.10
2022-11-19T15:11:18.329Z,-1.10
2022-11-19T15:13:47.262Z,-1.10
2022-11-19T15:16:28.363Z,-1.10
2022-11-19T15:19:24.283Z,-1.10
2022-11-19T15:21:51.153Z,-1.00
2022-11-19T15:24:31.987Z,-1.10
2022-11-19T15:27:39.049Z,-1.00
2022-11-19T15:30:11.621Z,-1.00
2022-11-19T15:33:05.974Z,-1.00
2022-11-19T15:35:45.494Z,-0.90
2022-11-19T15:38:24.921Z,-1.00
2022-11-19T15:40:55.384Z,-1.00
2022-11-19T15:43:22.198Z,-1.00
2022-11-19T15:46:30.250Z,-1.00
2022-11-19T15:49:22.557Z,-1.00
2022-11-19T15:51:55.546Z,-1.00
2022-11-19T15:54:28.621Z,-0.90
2022-11-19T15:57:00.713Z,-0.90
2022-11-19T15:59:29.239Z,-0.90
2022-11-19T16:02:01.046Z,-0.90
2022-11-19T16:04:39.070Z,-0.90
2022-11-19T16:07:08.709Z,-0.90
2022-11-19T16:09:38.594Z,-0.90
2022-11-19T16:12:24.434Z,-0.90
2022-11-19T16:15:11.196Z,-0.90
2022-11-19T16:17:47.814Z,-0.90
2022-11-19T16:20:22.100Z,-0.90
2022-11-19T16:22:55.114Z,-0.90
2022-11-19T16:25:38.134Z,-0.90
2022-11-19T16:28:08.529Z,-0.90
2022-11-19T16:30:51.494Z,-0.90
2022-11-19T16:33:24.673Z,-0.80
2022-11-19T16:35:53.834Z,-0.80
2022-11-19T16:38:28.860Z,-0.80
2022-11-19T16:41:15.943Z,-0.80
2022-11-19T16:43:44.988Z,-0.90
2022-11-19T16:46:19.084Z,-0.90
2022-11-19T16:48:48.730Z,-0.90
2022-11-19T16:51:45.437Z,-0.90
2022-11-19T16:54:12.914Z,-0.90
2022-11-19T16:56:45.676Z,-0.90
2022-11-19T16:59:21.492Z,-0.90
2022-11-19T17:01:55.228Z,-0.90
2022-11-19T17:04:27.006Z,-0.90
2022-11-19T17:06:54.161Z,-0.90
2022-11-19T17:09:43.917Z,-0.90
2022-11-19T17:12:27.963Z,-0.90
2022-11-19T17:14:58.188Z,-0.90
2022-11-19T17:17:25.013Z,-0.90
2022-11-19T17:19:52.483Z,-0.90
2022-11-19T17:22:23.157Z,-0.90
2022-11-19T17:24:51.027Z,-1.00
2022-11-19T17:27:36.201Z,-1.00
2022-11-19T17:30:10.249Z,-1.00
2022-11-19T17:32:45.692Z,-1.00
2022-11-19T17:35:38.423Z,-1.00
2022-11-19T17:38:32.376Z,-1.00
2022-11-19T17:41:01.883Z,-1.10
2022-11-19T17:43:55.236Z,-1.10
2022-11-19T17:46:24.184Z,-1.10
2022-11-19T17:48:51.568Z,-1.10
2022-11-19T17:51:24.258Z,-1.10
2022-11-19T17:53:52.370Z,-1.10
2022-11-19T17:56:26.652Z,-1.10
2022-11-19T17:58:54.768Z,-1.10
2022-11-19T18:01:22.302Z,-1.10
2022-11-19T18:03:49.592Z,-1.10
2022-11-19T18:06:17.901Z,-1.20
2022-11-19T18:08:45.956Z,-1.20
2022-11-19T18:11:24.179Z,-1.20
2022-11-19T18:13:52.876Z,-1.20
2022-11-19T18:16:22.617Z,-1.20
2022-11-19T18:18:49.802Z,-1.20
2022-11-19T18:21:23.019Z,-1.20
2022-11-19T18:23:51.856Z,-1.20
2022-11-19T18:26:22.346Z,-1.20
2022-11-19T18:28:49.434Z,-1.20
2022-11-19T18:31:27.893Z,-1.20
2022-11-19T18:33:56.194Z,-1.20
2022-11-19T18:36:24.712Z,-1.30
2022-11-19T18:38:52.840Z,-1.30
2022-11-19T18:41:19.872Z,-1.30
2022-11-19T18:44:05.832Z,-1.40
2022-11-19T18:46:32.786Z,-1.40
2022-11-19T18:48:59.897Z,-1.40
2022-11-19T18:51:30.631Z,-1.40
2022-11-19T18:53:57.531Z,-1.50
2022-11-19T18:56:24.612Z,-1.50
2022-11-19T18:58:51.787Z,-1.50
2022-11-19T19:01:18.864Z,-1.50
2022-11-19T19:03:45.870Z,-1.50
2022-11-19T19:06:12.852Z,-1.50
2022-11-19T19:08:39.790Z,-1.60
2022-11-19T19:11:26.718Z,-1.50
2022-11-19T19:13:54.332Z,-1.50
2022-11-19T19:16:22.009Z,-1.50
2022-11-19T19:18:49.049Z,-1.50
2022-11-19T19:21:20.811Z,-1.50
2022-11-19T19:23:48.497Z,-1.50
2022-11-19T19:26:17.781Z,-1.50
2022-11-19T19:28:50.164Z,-1.50
2022-11-19T19:31:18.164Z,-1.50
2022-11-19T19:33:48.310Z,-1.50
2022-11-19T19:36:16.349Z,-1.50
2022-11-19T19:38:43.791Z,-1.50
2022-11-19T19:41:14.898Z,-1.50
2022-11-19T19:43:41.771Z,-1.50
2022-11-19T19:46:13.476Z,-1.50
2022-11-19T19:48:40.488Z,-1.50
2022-11-19T19:51:07.434Z,-1.50
2022-11-19T19:53:35.189Z,-1.50
2022-11-19T19:56:16.337Z,-1.50
2022-11-19T19:58:44.849Z,-1.50
2022-11-19T20:01:17.538Z,-1.50
2022-11-19T20:03:46.596Z,-1.50
2022-11-19T20:06:17.996Z,-1.50
2022-11-19T20:08:45.364Z,-1.50
2022-11-19T20:11:15.067Z,-1.50
2022-11-19T20:13:43.013Z,-1.50
2022-11-19T20:16:17.898Z,-1.50
2022-11-19T20:18:46.918Z,-1.60
2022-11-19T20:21:19.229Z,-1.60
2022-11-19T20:23:46.620Z,-1.60
2022-11-19T20:26:19.598Z,-1.60
2022-11-19T20:28:47.684Z,-1.60
2022-11-19T20:31:20.200Z,-1.60
2022-11-19T20:33:52.064Z,-1.50
2022-11-19T20:36:19.101Z,-1.60
2022-11-19T20:38:46.221Z,-1.60
2022-11-19T20:41:34.312Z,-1.60
2022-11-19T20:44:20.649Z,-1.60
2022-11-19T20:46:54.123Z,-1.60
2022-11-19T20:49:27.002Z,-1.60
2022-11-19T20:51:55.140Z,-1.60
2022-11-19T20:54:23.516Z,-1.60
2022-11-19T20:56:52.317Z,-1.60
2022-11-19T20:59:19.887Z,-1.60
2022-11-19T21:01:49.907Z,-1.60
2022-11-19T21:04:17.297Z,-1.60
2022-11-19T21:06:44.196Z,-1.60
2022-11-19T21:09:11.150Z,-1.60
2022-11-19T21:11:38.332Z,-1.60
2022-11-19T21:14:05.322Z,-1.60
2022-11-19T21:16:33.002Z,-1.60
2022-11-19T21:19:00.404Z,-1.60
2022-11-19T21:21:27.930Z,-1.60
2022-11-19T21:23:55.149Z,-1.60
2022-11-19T21:26:24.252Z,-1.60
2022-11-19T21:28:53.693Z,-1.60
2022-11-19T21:31:22.538Z,-1.60
2022-11-19T21:33:49.428Z,-1.60
2022-11-19T21:36:16.316Z,-1.60
2022-11-19T21:38:43.186Z,-1.60
2022-11-19T21:41:10.045Z,-1.60
2022-11-19T21:43:37.506Z,-1.60
2022-11-19T21:46:07.766Z,-1.60
2022-11-19T21:48:38.863Z,-1.60
2022-11-19T21:51:07.546Z,-1.60
2022-11-19T21:53:35.360Z,-1.60
2022-11-19T21:56:02.599Z,-1.60
2022-11-19T21:58:29.491Z,-1.50
2022-11-19T22:01:00.539Z,-1.50
2022-11-19T22:03:31.078Z,-1.60
2022-11-19T22:06:03.521Z,-1.60
2022-11-19T22:08:31.740Z,-1.60
2022-11-19T22:10:58.903Z,-1.60
2022-11-19T22:13:26.154Z,-1.60
2022-11-19T22:16:02.201Z,-1.50
2022-11-19T22:18:29.123Z,-1.60
2022-11-19T22:21:03.436Z,-1.60
2022-11-19T22:23:30.541Z,-1.60
2022-11-19T22:26:03.197Z,-1.60
2022-11-19T22:28:30.185Z,-1.60
2022-11-19T22:30:56.989Z,-1.60
2022-11-19T22:33:23.929Z,-1.60
2022-11-19T22:35:50.811Z,-1.60
2022-11-19T22:38:17.690Z,-1.60
2022-11-19T22:40:44.501Z,-1.60
2022-11-19T22:43:11.308Z,-1.60
2022-11-19T22:45:38.115Z,-1.60
2022-11-19T22:48:05.189Z,-1.60
2022-11-19T22:50:32.057Z,-1.60
2022-11-19T22:52:58.865Z,-1.60
2022-11-19T22:55:25.761Z,-1.60
2022-11-19T22:57:52.600Z,-1.60
2022-11-19T23:00:39.848Z,-1.60
2022-11-19T23:03:07.061Z,-1.60
2022-11-19T23:05:37.133Z,-1.60
2022-11-19T23:08:06.607Z,-1.60
2022-11-19T23:10:34.228Z,-1.60
2022-11-19T23:13:20.480Z,-1.70
2022-11-19T23:16:07.270Z,-1.70
2022-11-19T23:21:36.675Z,-1.70
2022-11-19T23:24:04.654Z,-1.70
2022-11-19T23:26:32.765Z,-1.70
2022-11-19T23:28:59.687Z,-1.70
2022-11-19T23:31:31.827Z,-1.70
2022-11-19T23:33:59.611Z,-1.70
2022-11-19T23:36:32.720Z,-1.70
2022-11-19T23:39:00.471Z,-1.70
2022-11-19T23:41:28.046Z,-1.70
2022-11-19T23:43:55.774Z,-1.70
2022-11-19T23:46:25.384Z,-1.70
2022-11-19T23:48:52.986Z,-1.70
2022-11-19T23:51:24.621Z,-1.70
2022-11-19T23:53:52.360Z,-1.70
2022-11-19T23:56:20.944Z,-1.70
2022-11-19T23:58:48.564Z,-1.70
